sensor_id;sensor_type;location;lat;lon;timestamp;P1;durP1;ratioP1;P2;durP2;ratioP2
6432;SDS011;3249;42.690;23.260;2024-03-08T00:01:33;4.77;;;4.37;;
6432;SDS011;3249;42.690;23.260;2024-03-08T00:04:03;5.07;;;4.67;;
6432;SDS011;3249;42.690;23.260;2024-03-08T00:06:33;4.53;;;4.23;;
6432;SDS011;3249;42.690;23.260;2024-03-08T00:09:05;5.70;;;5.23;;
6432;SDS011;3249;42.690;23.260;2024-03-08T00:11:36;6.47;;;5.90;;
6432;SDS011;3249;42.690;23.260;2024-03-08T00:14:07;7.97;;;7.17;;
6432;SDS011;3249;42.690;23.260;2024-03-08T00:16:36;7.63;;;6.40;;
6432;SDS011;3249;42.690;23.260;2024-03-08T00:19:09;6.07;;;5.33;;
6432;SDS011;3249;42.690;23.260;2024-03-08T00:21:38;5.93;;;5.17;;
6432;SDS011;3249;42.690;23.260;2024-03-08T00:24:11;7.03;;;5.47;;
6432;SDS011;3249;42.690;23.260;2024-03-08T00:26:40;6.43;;;5.33;;
6432;SDS011;3249;42.690;23.260;2024-03-08T00:29:10;4.40;;;4.10;;
6432;SDS011;3249;42.690;23.260;2024-03-08T00:31:39;4.60;;;4.20;;
6432;SDS011;3249;42.690;23.260;2024-03-08T00:34:09;3.83;;;3.53;;
6432;SDS011;3249;42.690;23.260;2024-03-08T00:36:39;3.83;;;3.53;;
6432;SDS011;3249;42.690;23.260;2024-03-08T00:39:11;3.13;;;2.93;;
6432;SDS011;3249;42.690;23.260;2024-03-08T00:41:41;4.07;;;3.77;;
6432;SDS011;3249;42.690;23.260;2024-03-08T00:44:11;3.87;;;3.20;;
6432;SDS011;3249;42.690;23.260;2024-03-08T00:46:40;4.27;;;3.97;;
6432;SDS011;3249;42.690;23.260;2024-03-08T00:49:10;4.53;;;3.60;;
6432;SDS011;3249;42.690;23.260;2024-03-08T00:51:39;3.97;;;3.60;;
6432;SDS011;3249;42.690;23.260;2024-03-08T00:54:11;4.47;;;4.13;;
6432;SDS011;3249;42.690;23.260;2024-03-08T00:56:42;4.57;;;4.10;;
6432;SDS011;3249;42.690;23.260;2024-03-08T00:59:12;4.20;;;3.87;;
6432;SDS011;3249;42.690;23.260;2024-03-08T01:01:41;5.57;;;5.07;;
6432;SDS011;3249;42.690;23.260;2024-03-08T01:04:11;5.37;;;4.90;;
6432;SDS011;3249;42.690;23.260;2024-03-08T01:06:40;4.70;;;4.33;;
6432;SDS011;3249;42.690;23.260;2024-03-08T01:09:14;5.30;;;3.50;;
6432;SDS011;3249;42.690;23.260;2024-03-08T01:11:44;3.80;;;3.60;;
6432;SDS011;3249;42.690;23.260;2024-03-08T01:14:14;3.77;;;3.57;;
6432;SDS011;3249;42.690;23.260;2024-03-08T01:16:43;3.93;;;3.73;;
6432;SDS011;3249;42.690;23.260;2024-03-08T01:19:12;4.00;;;3.60;;
6432;SDS011;3249;42.690;23.260;2024-03-08T01:21:42;3.33;;;3.13;;
6432;SDS011;3249;42.690;23.260;2024-03-08T01:24:11;4.20;;;3.90;;
6432;SDS011;3249;42.690;23.260;2024-03-08T01:26:42;3.87;;;3.60;;
6432;SDS011;3249;42.690;23.260;2024-03-08T01:29:13;3.77;;;3.47;;
6432;SDS011;3249;42.690;23.260;2024-03-08T01:31:43;4.70;;;4.33;;
6432;SDS011;3249;42.690;23.260;2024-03-08T01:34:12;4.67;;;4.27;;
6432;SDS011;3249;42.690;23.260;2024-03-08T01:36:41;4.20;;;3.90;;
6432;SDS011;3249;42.690;23.260;2024-03-08T01:39:11;3.70;;;3.50;;
6432;SDS011;3249;42.690;23.260;2024-03-08T01:41:40;4.07;;;3.77;;
6432;SDS011;3249;42.690;23.260;2024-03-08T01:44:12;3.70;;;3.40;;
6432;SDS011;3249;42.690;23.260;2024-03-08T01:46:43;3.60;;;3.40;;
6432;SDS011;3249;42.690;23.260;2024-03-08T01:49:13;3.43;;;3.23;;
6432;SDS011;3249;42.690;23.260;2024-03-08T01:51:44;3.60;;;3.40;;
6432;SDS011;3249;42.690;23.260;2024-03-08T01:54:14;3.63;;;3.43;;
6432;SDS011;3249;42.690;23.260;2024-03-08T01:56:48;3.83;;;3.53;;
6432;SDS011;3249;42.690;23.260;2024-03-08T01:59:18;4.03;;;3.73;;
6432;SDS011;3249;42.690;23.260;2024-03-08T02:01:48;3.47;;;3.27;;
6432;SDS011;3249;42.690;23.260;2024-03-08T02:04:17;3.53;;;3.33;;
6432;SDS011;3249;42.690;23.260;2024-03-08T02:06:47;4.07;;;3.77;;
6432;SDS011;3249;42.690;23.260;2024-03-08T02:09:17;3.97;;;3.57;;
6432;SDS011;3249;42.690;23.260;2024-03-08T02:11:49;3.63;;;3.33;;
6432;SDS011;3249;42.690;23.260;2024-03-08T02:14:20;4.53;;;4.00;;
6432;SDS011;3249;42.690;23.260;2024-03-08T02:16:50;4.20;;;3.90;;
6432;SDS011;3249;42.690;23.260;2024-03-08T02:19:19;4.37;;;4.03;;
6432;SDS011;3249;42.690;23.260;2024-03-08T02:21:52;6.23;;;3.90;;
6432;SDS011;3249;42.690;23.260;2024-03-08T02:24:21;3.70;;;3.37;;
6432;SDS011;3249;42.690;23.260;2024-03-08T02:26:51;3.80;;;3.50;;
6432;SDS011;3249;42.690;23.260;2024-03-08T02:29:21;5.00;;;4.10;;
6432;SDS011;3249;42.690;23.260;2024-03-08T02:31:51;4.03;;;3.73;;
6432;SDS011;3249;42.690;23.260;2024-03-08T02:34:21;4.00;;;3.60;;
6432;SDS011;3249;42.690;23.260;2024-03-08T02:36:53;3.47;;;3.17;;
6432;SDS011;3249;42.690;23.260;2024-03-08T02:39:23;3.20;;;3.00;;
6432;SDS011;3249;42.690;23.260;2024-03-08T02:41:53;3.60;;;3.40;;
6432;SDS011;3249;42.690;23.260;2024-03-08T02:44:22;3.90;;;3.60;;
6432;SDS011;3249;42.690;23.260;2024-03-08T02:46:51;4.57;;;4.17;;
6432;SDS011;3249;42.690;23.260;2024-03-08T02:49:20;3.67;;;3.37;;
6432;SDS011;3249;42.690;23.260;2024-03-08T02:51:53;3.50;;;3.30;;
6432;SDS011;3249;42.690;23.260;2024-03-08T02:54:22;4.13;;;3.83;;
6432;SDS011;3249;42.690;23.260;2024-03-08T02:56:52;4.03;;;3.73;;
6432;SDS011;3249;42.690;23.260;2024-03-08T02:59:22;4.10;;;3.83;;
6432;SDS011;3249;42.690;23.260;2024-03-08T03:01:51;3.20;;;3.00;;
6432;SDS011;3249;42.690;23.260;2024-03-08T03:04:21;3.30;;;3.10;;
6432;SDS011;3249;42.690;23.260;2024-03-08T03:06:53;3.43;;;3.20;;
6432;SDS011;3249;42.690;23.260;2024-03-08T03:09:22;3.10;;;3.00;;
6432;SDS011;3249;42.690;23.260;2024-03-08T03:11:53;2.40;;;2.30;;
6432;SDS011;3249;42.690;23.260;2024-03-08T03:14:23;2.37;;;2.27;;
6432;SDS011;3249;42.690;23.260;2024-03-08T03:16:53;2.13;;;2.00;;
6432;SDS011;3249;42.690;23.260;2024-03-08T03:19:22;2.43;;;2.30;;
6432;SDS011;3249;42.690;23.260;2024-03-08T03:21:56;2.83;;;2.63;;
6432;SDS011;3249;42.690;23.260;2024-03-08T03:24:25;2.93;;;2.73;;
6432;SDS011;3249;42.690;23.260;2024-03-08T03:26:55;3.93;;;3.63;;
6432;SDS011;3249;42.690;23.260;2024-03-08T03:29:25;3.70;;;3.40;;
6432;SDS011;3249;42.690;23.260;2024-03-08T03:31:56;5.70;;;4.17;;
6432;SDS011;3249;42.690;23.260;2024-03-08T03:34:25;4.70;;;4.30;;
6432;SDS011;3249;42.690;23.260;2024-03-08T03:36:57;6.30;;;5.67;;
6432;SDS011;3249;42.690;23.260;2024-03-08T03:39:28;6.43;;;5.90;;
6432;SDS011;3249;42.690;23.260;2024-03-08T03:41:59;4.07;;;3.77;;
6432;SDS011;3249;42.690;23.260;2024-03-08T03:44:29;4.73;;;4.33;;
6432;SDS011;3249;42.690;23.260;2024-03-08T03:46:58;4.47;;;4.10;;
6432;SDS011;3249;42.690;23.260;2024-03-08T03:49:27;4.33;;;4.03;;
6432;SDS011;3249;42.690;23.260;2024-03-08T03:51:59;4.90;;;4.50;;
6432;SDS011;3249;42.690;23.260;2024-03-08T03:54:30;5.17;;;4.83;;
6432;SDS011;3249;42.690;23.260;2024-03-08T03:56:59;4.43;;;4.03;;
6432;SDS011;3249;42.690;23.260;2024-03-08T03:59:29;3.27;;;3.07;;
6432;SDS011;3249;42.690;23.260;2024-03-08T04:01:58;4.50;;;4.10;;
6432;SDS011;3249;42.690;23.260;2024-03-08T04:04:29;5.23;;;4.20;;
6432;SDS011;3249;42.690;23.260;2024-03-08T04:07:01;3.83;;;3.53;;
6432;SDS011;3249;42.690;23.260;2024-03-08T04:09:31;3.43;;;3.23;;
6432;SDS011;3249;42.690;23.260;2024-03-08T04:12:00;4.83;;;4.37;;
6432;SDS011;3249;42.690;23.260;2024-03-08T04:14:29;3.97;;;3.67;;
6432;SDS011;3249;42.690;23.260;2024-03-08T04:17:00;8.83;;;5.17;;
6432;SDS011;3249;42.690;23.260;2024-03-08T04:19:29;4.93;;;4.50;;
6432;SDS011;3249;42.690;23.260;2024-03-08T04:22:03;4.73;;;4.33;;
6432;SDS011;3249;42.690;23.260;2024-03-08T04:24:33;6.27;;;3.90;;
6432;SDS011;3249;42.690;23.260;2024-03-08T04:27:03;7.40;;;4.33;;
6432;SDS011;3249;42.690;23.260;2024-03-08T04:29:32;6.00;;;5.10;;
6432;SDS011;3249;42.690;23.260;2024-03-08T04:32:02;4.10;;;3.80;;
6432;SDS011;3249;42.690;23.260;2024-03-08T04:34:32;3.73;;;3.43;;
6432;SDS011;3249;42.690;23.260;2024-03-08T04:37:04;4.70;;;4.30;;
6432;SDS011;3249;42.690;23.260;2024-03-08T04:39:36;7.63;;;6.97;;
6432;SDS011;3249;42.690;23.260;2024-03-08T04:42:05;8.97;;;8.17;;
6432;SDS011;3249;42.690;23.260;2024-03-08T04:44:37;6.53;;;6.10;;
6432;SDS011;3249;42.690;23.260;2024-03-08T04:47:06;7.47;;;5.43;;
6432;SDS011;3249;42.690;23.260;2024-03-08T04:49:36;6.23;;;5.63;;
6432;SDS011;3249;42.690;23.260;2024-03-08T04:52:09;5.70;;;5.30;;
6432;SDS011;3249;42.690;23.260;2024-03-08T04:54:38;8.10;;;7.40;;
6432;SDS011;3249;42.690;23.260;2024-03-08T04:57:08;15.23;;;6.57;;
6432;SDS011;3249;42.690;23.260;2024-03-08T04:59:37;6.50;;;5.93;;
6432;SDS011;3249;42.690;23.260;2024-03-08T05:02:06;6.17;;;5.63;;
6432;SDS011;3249;42.690;23.260;2024-03-08T05:04:35;6.70;;;6.10;;
6432;SDS011;3249;42.690;23.260;2024-03-08T05:07:06;13.37;;;10.70;;
6432;SDS011;3249;42.690;23.260;2024-03-08T05:09:37;9.37;;;8.47;;
6432;SDS011;3249;42.690;23.260;2024-03-08T05:12:07;7.00;;;6.40;;
6432;SDS011;3249;42.690;23.260;2024-03-08T05:14:36;14.43;;;5.17;;
6432;SDS011;3249;42.690;23.260;2024-03-08T05:17:06;6.40;;;5.80;;
6432;SDS011;3249;42.690;23.260;2024-03-08T05:19:35;7.23;;;6.67;;
6432;SDS011;3249;42.690;23.260;2024-03-08T05:22:05;6.30;;;5.90;;
6432;SDS011;3249;42.690;23.260;2024-03-08T05:24:36;7.43;;;6.73;;
6432;SDS011;3249;42.690;23.260;2024-03-08T05:27:06;9.50;;;6.57;;
6432;SDS011;3249;42.690;23.260;2024-03-08T05:29:35;9.87;;;5.87;;
6432;SDS011;3249;42.690;23.260;2024-03-08T05:32:05;6.73;;;6.13;;
6432;SDS011;3249;42.690;23.260;2024-03-08T05:34:35;7.27;;;6.57;;
6432;SDS011;3249;42.690;23.260;2024-03-08T05:37:04;9.40;;;8.30;;
6432;SDS011;3249;42.690;23.260;2024-03-08T05:39:37;9.67;;;8.47;;
6432;SDS011;3249;42.690;23.260;2024-03-08T05:42:06;11.00;;;7.57;;
6432;SDS011;3249;42.690;23.260;2024-03-08T05:44:36;23.33;;;17.73;;
6432;SDS011;3249;42.690;23.260;2024-03-08T05:47:06;35.13;;;26.53;;
6432;SDS011;3249;42.690;23.260;2024-03-08T05:49:37;15.53;;;12.10;;
6432;SDS011;3249;42.690;23.260;2024-03-08T05:52:06;14.27;;;12.87;;
6432;SDS011;3249;42.690;23.260;2024-03-08T05:54:40;11.73;;;9.50;;
6432;SDS011;3249;42.690;23.260;2024-03-08T05:57:11;13.33;;;10.53;;
6432;SDS011;3249;42.690;23.260;2024-03-08T05:59:41;13.93;;;10.53;;
6432;SDS011;3249;42.690;23.260;2024-03-08T06:02:10;9.50;;;8.33;;
6432;SDS011;3249;42.690;23.260;2024-03-08T06:04:42;7.87;;;7.07;;
6432;SDS011;3249;42.690;23.260;2024-03-08T06:07:11;9.00;;;8.10;;
6432;SDS011;3249;42.690;23.260;2024-03-08T06:09:43;7.80;;;6.93;;
6432;SDS011;3249;42.690;23.260;2024-03-08T06:12:14;13.63;;;9.87;;
6432;SDS011;3249;42.690;23.260;2024-03-08T06:14:45;10.53;;;8.43;;
6432;SDS011;3249;42.690;23.260;2024-03-08T06:17:14;8.87;;;7.43;;
6432;SDS011;3249;42.690;23.260;2024-03-08T06:19:44;11.00;;;9.00;;
6432;SDS011;3249;42.690;23.260;2024-03-08T06:22:13;8.83;;;8.03;;
6432;SDS011;3249;42.690;23.260;2024-03-08T06:24:45;9.83;;;8.83;;
6432;SDS011;3249;42.690;23.260;2024-03-08T06:27:15;10.40;;;9.30;;
6432;SDS011;3249;42.690;23.260;2024-03-08T06:29:44;16.47;;;9.37;;
6432;SDS011;3249;42.690;23.260;2024-03-08T06:32:15;10.30;;;9.03;;
6432;SDS011;3249;42.690;23.260;2024-03-08T06:34:44;12.50;;;8.20;;
6432;SDS011;3249;42.690;23.260;2024-03-08T06:37:13;15.73;;;11.80;;
6432;SDS011;3249;42.690;23.260;2024-03-08T06:39:50;13.87;;;11.43;;
6432;SDS011;3249;42.690;23.260;2024-03-08T06:42:20;14.17;;;12.20;;
6432;SDS011;3249;42.690;23.260;2024-03-08T06:44:49;15.90;;;11.30;;
6432;SDS011;3249;42.690;23.260;2024-03-08T06:47:21;14.83;;;11.13;;
6432;SDS011;3249;42.690;23.260;2024-03-08T06:49:51;22.20;;;15.37;;
6432;SDS011;3249;42.690;23.260;2024-03-08T06:52:21;17.27;;;12.27;;
6432;SDS011;3249;42.690;23.260;2024-03-08T06:54:53;9.60;;;8.70;;
6432;SDS011;3249;42.690;23.260;2024-03-08T06:57:22;10.33;;;9.33;;
6432;SDS011;3249;42.690;23.260;2024-03-08T06:59:52;7.83;;;7.07;;
6432;SDS011;3249;42.690;23.260;2024-03-08T07:02:23;10.87;;;8.10;;
6432;SDS011;3249;42.690;23.260;2024-03-08T07:04:53;9.77;;;8.60;;
6432;SDS011;3249;42.690;23.260;2024-03-08T07:07:22;12.57;;;10.20;;
6432;SDS011;3249;42.690;23.260;2024-03-08T07:09:54;14.73;;;10.80;;
6432;SDS011;3249;42.690;23.260;2024-03-08T07:12:24;10.90;;;9.80;;
6432;SDS011;3249;42.690;23.260;2024-03-08T07:14:54;10.50;;;8.97;;
6432;SDS011;3249;42.690;23.260;2024-03-08T07:17:23;14.50;;;11.73;;
6432;SDS011;3249;42.690;23.260;2024-03-08T07:20:06;11.80;;;9.10;;
6432;SDS011;3249;42.690;23.260;2024-03-08T07:22:37;10.30;;;8.90;;
6432;SDS011;3249;42.690;23.260;2024-03-08T07:25:10;12.77;;;10.70;;
6432;SDS011;3249;42.690;23.260;2024-03-08T07:27:47;10.73;;;8.93;;
6432;SDS011;3249;42.690;23.260;2024-03-08T07:30:17;24.00;;;14.77;;
6432;SDS011;3249;42.690;23.260;2024-03-08T07:32:59;9.40;;;7.17;;
6432;SDS011;3249;42.690;23.260;2024-03-08T07:35:31;24.50;;;18.80;;
6432;SDS011;3249;42.690;23.260;2024-03-08T07:38:03;16.60;;;12.53;;
6432;SDS011;3249;42.690;23.260;2024-03-08T07:40:37;12.93;;;9.87;;
6432;SDS011;3249;42.690;23.260;2024-03-08T07:43:10;11.37;;;10.17;;
6432;SDS011;3249;42.690;23.260;2024-03-08T07:45:40;18.13;;;13.60;;
6432;SDS011;3249;42.690;23.260;2024-03-08T07:48:09;22.30;;;16.23;;
6432;SDS011;3249;42.690;23.260;2024-03-08T07:50:38;13.27;;;11.77;;
6432;SDS011;3249;42.690;23.260;2024-03-08T07:53:09;20.83;;;15.93;;
6432;SDS011;3249;42.690;23.260;2024-03-08T07:55:41;16.40;;;12.53;;
6432;SDS011;3249;42.690;23.260;2024-03-08T07:58:11;18.10;;;13.47;;
6432;SDS011;3249;42.690;23.260;2024-03-08T08:00:40;16.10;;;12.57;;
6432;SDS011;3249;42.690;23.260;2024-03-08T08:03:10;15.23;;;11.00;;
6432;SDS011;3249;42.690;23.260;2024-03-08T08:05:39;13.87;;;11.77;;
6432;SDS011;3249;42.690;23.260;2024-03-08T08:08:08;15.13;;;10.27;;
6432;SDS011;3249;42.690;23.260;2024-03-08T08:10:41;13.30;;;9.73;;
6432;SDS011;3249;42.690;23.260;2024-03-08T08:13:10;10.70;;;9.60;;
6432;SDS011;3249;42.690;23.260;2024-03-08T08:15:41;11.43;;;9.40;;
6432;SDS011;3249;42.690;23.260;2024-03-08T08:18:11;12.43;;;8.97;;
6432;SDS011;3249;42.690;23.260;2024-03-08T08:20:40;13.43;;;11.07;;
6432;SDS011;3249;42.690;23.260;2024-03-08T08:23:09;22.17;;;12.33;;
6432;SDS011;3249;42.690;23.260;2024-03-08T08:25:42;15.00;;;10.77;;
6432;SDS011;3249;42.690;23.260;2024-03-08T08:28:11;9.17;;;7.90;;
6432;SDS011;3249;42.690;23.260;2024-03-08T08:30:42;7.90;;;7.20;;
6432;SDS011;3249;42.690;23.260;2024-03-08T08:33:11;14.50;;;8.30;;
6432;SDS011;3249;42.690;23.260;2024-03-08T08:35:41;10.33;;;9.27;;
6432;SDS011;3249;42.690;23.260;2024-03-08T08:38:10;15.40;;;11.27;;
6432;SDS011;3249;42.690;23.260;2024-03-08T08:40:42;28.20;;;11.80;;
6432;SDS011;3249;42.690;23.260;2024-03-08T08:43:12;11.67;;;9.10;;
6432;SDS011;3249;42.690;23.260;2024-03-08T08:45:42;11.77;;;8.13;;
6432;SDS011;3249;42.690;23.260;2024-03-08T08:48:12;10.60;;;7.50;;
6432;SDS011;3249;42.690;23.260;2024-03-08T08:50:42;9.53;;;8.53;;
6432;SDS011;3249;42.690;23.260;2024-03-08T08:53:12;12.60;;;11.47;;
6432;SDS011;3249;42.690;23.260;2024-03-08T08:55:45;13.27;;;9.97;;
6432;SDS011;3249;42.690;23.260;2024-03-08T08:58:15;12.93;;;8.93;;
6432;SDS011;3249;42.690;23.260;2024-03-08T09:00:45;7.53;;;6.43;;
6432;SDS011;3249;42.690;23.260;2024-03-08T09:03:15;6.30;;;5.80;;
6432;SDS011;3249;42.690;23.260;2024-03-08T09:05:44;5.40;;;4.90;;
6432;SDS011;3249;42.690;23.260;2024-03-08T09:08:14;8.30;;;6.73;;
6432;SDS011;3249;42.690;23.260;2024-03-08T09:10:47;7.20;;;4.63;;
6432;SDS011;3249;42.690;23.260;2024-03-08T09:13:16;6.47;;;5.93;;
6432;SDS011;3249;42.690;23.260;2024-03-08T09:15:46;5.43;;;5.03;;
6432;SDS011;3249;42.690;23.260;2024-03-08T09:18:15;4.70;;;4.30;;
6432;SDS011;3249;42.690;23.260;2024-03-08T09:20:45;12.00;;;5.53;;
6432;SDS011;3249;42.690;23.260;2024-03-08T09:23:14;9.60;;;5.93;;
6432;SDS011;3249;42.690;23.260;2024-03-08T09:25:46;5.50;;;4.47;;
6432;SDS011;3249;42.690;23.260;2024-03-08T09:28:16;9.33;;;4.93;;
6432;SDS011;3249;42.690;23.260;2024-03-08T09:30:45;6.83;;;4.87;;
6432;SDS011;3249;42.690;23.260;2024-03-08T09:33:14;5.80;;;4.60;;
6432;SDS011;3249;42.690;23.260;2024-03-08T09:35:45;5.33;;;4.67;;
6432;SDS011;3249;42.690;23.260;2024-03-08T09:38:14;4.80;;;4.30;;
6432;SDS011;3249;42.690;23.260;2024-03-08T09:40:48;4.43;;;4.07;;
6432;SDS011;3249;42.690;23.260;2024-03-08T09:43:18;4.07;;;3.73;;
6432;SDS011;3249;42.690;23.260;2024-03-08T09:45:50;5.10;;;4.60;;
6432;SDS011;3249;42.690;23.260;2024-03-08T09:48:19;8.20;;;4.57;;
6432;SDS011;3249;42.690;23.260;2024-03-08T09:50:50;4.60;;;4.20;;
6432;SDS011;3249;42.690;23.260;2024-03-08T09:53:20;4.90;;;4.50;;
6432;SDS011;3249;42.690;23.260;2024-03-08T09:55:53;4.80;;;4.30;;
6432;SDS011;3249;42.690;23.260;2024-03-08T10:01:20;6.13;;;5.63;;
6432;SDS011;3249;42.690;23.260;2024-03-08T10:03:52;8.57;;;7.50;;
6432;SDS011;3249;42.690;23.260;2024-03-08T10:06:22;6.90;;;4.87;;
6432;SDS011;3249;42.690;23.260;2024-03-08T10:08:52;4.00;;;3.63;;
6432;SDS011;3249;42.690;23.260;2024-03-08T10:11:24;4.50;;;4.13;;
6432;SDS011;3249;42.690;23.260;2024-03-08T10:13:55;4.97;;;4.67;;
6432;SDS011;3249;42.690;23.260;2024-03-08T10:16:25;4.40;;;4.00;;
6432;SDS011;3249;42.690;23.260;2024-03-08T10:18:56;5.77;;;4.17;;
6432;SDS011;3249;42.690;23.260;2024-03-08T10:21:26;4.20;;;3.90;;
6432;SDS011;3249;42.690;23.260;2024-03-08T10:23:55;4.50;;;4.20;;
6432;SDS011;3249;42.690;23.260;2024-03-08T10:26:29;5.80;;;5.30;;
6432;SDS011;3249;42.690;23.260;2024-03-08T10:28:59;6.17;;;4.50;;
6432;SDS011;3249;42.690;23.260;2024-03-08T10:31:29;6.60;;;4.70;;
6432;SDS011;3249;42.690;23.260;2024-03-08T10:33:58;4.37;;;3.97;;
6432;SDS011;3249;42.690;23.260;2024-03-08T10:36:28;7.67;;;3.90;;
6432;SDS011;3249;42.690;23.260;2024-03-08T10:38:58;4.17;;;3.73;;
6432;SDS011;3249;42.690;23.260;2024-03-08T10:41:32;5.77;;;4.00;;
6432;SDS011;3249;42.690;23.260;2024-03-08T10:44:09;3.20;;;3.00;;
6432;SDS011;3249;42.690;23.260;2024-03-08T10:46:58;10.07;;;5.10;;
6432;SDS011;3249;42.690;23.260;2024-03-08T10:49:31;4.20;;;3.87;;
6432;SDS011;3249;42.690;23.260;2024-03-08T10:52:06;3.77;;;3.50;;
6432;SDS011;3249;42.690;23.260;2024-03-08T10:54:37;4.10;;;3.80;;
6432;SDS011;3249;42.690;23.260;2024-03-08T10:57:09;3.90;;;3.60;;
6432;SDS011;3249;42.690;23.260;2024-03-08T10:59:40;7.23;;;5.07;;
6432;SDS011;3249;42.690;23.260;2024-03-08T11:02:11;3.90;;;3.60;;
6432;SDS011;3249;42.690;23.260;2024-03-08T11:04:47;4.30;;;3.77;;
6432;SDS011;3249;42.690;23.260;2024-03-08T11:07:19;2.70;;;2.50;;
6432;SDS011;3249;42.690;23.260;2024-03-08T11:09:48;4.90;;;3.77;;
6432;SDS011;3249;42.690;23.260;2024-03-08T11:13:07;4.43;;;2.50;;
6432;SDS011;3249;42.690;23.260;2024-03-08T11:16:06;3.33;;;3.00;;
6432;SDS011;3249;42.690;23.260;2024-03-08T11:18:37;4.73;;;3.63;;
6432;SDS011;3249;42.690;23.260;2024-03-08T11:21:08;4.07;;;3.63;;
6432;SDS011;3249;42.690;23.260;2024-03-08T11:23:39;5.63;;;3.83;;
6432;SDS011;3249;42.690;23.260;2024-03-08T11:26:17;9.17;;;4.47;;
6432;SDS011;3249;42.690;23.260;2024-03-08T11:28:49;8.03;;;4.57;;
6432;SDS011;3249;42.690;23.260;2024-03-08T11:31:23;4.20;;;3.80;;
6432;SDS011;3249;42.690;23.260;2024-03-08T11:33:54;3.90;;;3.60;;
6432;SDS011;3249;42.690;23.260;2024-03-08T11:36:26;8.93;;;4.70;;
6432;SDS011;3249;42.690;23.260;2024-03-08T11:38:57;9.23;;;5.43;;
6432;SDS011;3249;42.690;23.260;2024-03-08T11:41:35;9.60;;;6.93;;
6432;SDS011;3249;42.690;23.260;2024-03-08T11:44:09;3.70;;;3.50;;
6432;SDS011;3249;42.690;23.260;2024-03-08T11:46:41;6.80;;;4.70;;
6432;SDS011;3249;42.690;23.260;2024-03-08T11:49:13;5.10;;;4.30;;
6432;SDS011;3249;42.690;23.260;2024-03-08T11:51:43;4.23;;;3.93;;
6432;SDS011;3249;42.690;23.260;2024-03-08T11:54:13;4.50;;;4.10;;
6432;SDS011;3249;42.690;23.260;2024-03-08T11:56:42;5.10;;;4.60;;
6432;SDS011;3249;42.690;23.260;2024-03-08T11:59:15;3.80;;;3.50;;
6432;SDS011;3249;42.690;23.260;2024-03-08T12:01:50;4.83;;;3.30;;
6432;SDS011;3249;42.690;23.260;2024-03-08T12:04:31;3.57;;;3.37;;
6432;SDS011;3249;42.690;23.260;2024-03-08T12:07:01;5.13;;;2.93;;
6432;SDS011;3249;42.690;23.260;2024-03-08T12:09:34;3.97;;;3.03;;
6432;SDS011;3249;42.690;23.260;2024-03-08T12:12:06;3.03;;;2.80;;
6432;SDS011;3249;42.690;23.260;2024-03-08T12:14:40;6.40;;;5.23;;
6432;SDS011;3249;42.690;23.260;2024-03-08T12:17:13;5.07;;;3.90;;
6432;SDS011;3249;42.690;23.260;2024-03-08T12:19:45;4.33;;;4.07;;
6432;SDS011;3249;42.690;23.260;2024-03-08T12:22:15;7.63;;;4.23;;
6432;SDS011;3249;42.690;23.260;2024-03-08T12:24:45;5.60;;;3.30;;
6432;SDS011;3249;42.690;23.260;2024-03-08T12:27:36;2.93;;;2.83;;
6432;SDS011;3249;42.690;23.260;2024-03-08T12:30:19;6.77;;;5.40;;
6432;SDS011;3249;42.690;23.260;2024-03-08T12:32:53;3.60;;;3.40;;
6432;SDS011;3249;42.690;23.260;2024-03-08T12:35:26;3.50;;;3.20;;
6432;SDS011;3249;42.690;23.260;2024-03-08T12:37:58;4.30;;;3.90;;
6432;SDS011;3249;42.690;23.260;2024-03-08T12:40:28;4.40;;;4.10;;
6432;SDS011;3249;42.690;23.260;2024-03-08T12:43:00;3.73;;;3.53;;
6432;SDS011;3249;42.690;23.260;2024-03-08T12:45:34;4.07;;;3.80;;
6432;SDS011;3249;42.690;23.260;2024-03-08T12:48:11;3.77;;;3.40;;
6432;SDS011;3249;42.690;23.260;2024-03-08T12:50:42;5.03;;;4.03;;
6432;SDS011;3249;42.690;23.260;2024-03-08T12:53:13;6.77;;;5.20;;
6432;SDS011;3249;42.690;23.260;2024-03-08T12:55:43;4.30;;;4.00;;
6432;SDS011;3249;42.690;23.260;2024-03-08T12:58:12;5.43;;;3.50;;
6432;SDS011;3249;42.690;23.260;2024-03-08T13:00:45;3.47;;;3.27;;
6432;SDS011;3249;42.690;23.260;2024-03-08T13:03:14;3.40;;;3.20;;
6432;SDS011;3249;42.690;23.260;2024-03-08T13:05:43;4.37;;;4.07;;
6432;SDS011;3249;42.690;23.260;2024-03-08T13:08:13;3.97;;;3.77;;
6432;SDS011;3249;42.690;23.260;2024-03-08T13:10:43;4.60;;;4.27;;
6432;SDS011;3249;42.690;23.260;2024-03-08T13:13:13;4.47;;;4.07;;
6432;SDS011;3249;42.690;23.260;2024-03-08T13:15:45;5.93;;;4.40;;
6432;SDS011;3249;42.690;23.260;2024-03-08T13:18:14;4.00;;;3.77;;
6432;SDS011;3249;42.690;23.260;2024-03-08T13:20:44;3.87;;;3.67;;
6432;SDS011;3249;42.690;23.260;2024-03-08T13:23:15;4.30;;;4.00;;
6432;SDS011;3249;42.690;23.260;2024-03-08T13:25:44;4.77;;;4.37;;
6432;SDS011;3249;42.690;23.260;2024-03-08T13:28:15;4.40;;;4.00;;
6432;SDS011;3249;42.690;23.260;2024-03-08T13:30:54;12.70;;;5.20;;
6432;SDS011;3249;42.690;23.260;2024-03-08T13:33:25;5.37;;;4.87;;
6432;SDS011;3249;42.690;23.260;2024-03-08T13:35:56;5.40;;;4.90;;
6432;SDS011;3249;42.690;23.260;2024-03-08T13:38:26;4.57;;;4.20;;
6432;SDS011;3249;42.690;23.260;2024-03-08T13:40:58;4.40;;;4.10;;
6432;SDS011;3249;42.690;23.260;2024-03-08T13:43:28;4.90;;;4.47;;
6432;SDS011;3249;42.690;23.260;2024-03-08T13:46:02;5.80;;;5.30;;
6432;SDS011;3249;42.690;23.260;2024-03-08T13:48:32;4.70;;;3.97;;
6432;SDS011;3249;42.690;23.260;2024-03-08T13:51:00;5.13;;;4.63;;
6432;SDS011;3249;42.690;23.260;2024-03-08T13:53:30;5.37;;;4.97;;
6432;SDS011;3249;42.690;23.260;2024-03-08T13:56:00;5.77;;;4.50;;
6432;SDS011;3249;42.690;23.260;2024-03-08T13:58:31;4.30;;;4.00;;
6432;SDS011;3249;42.690;23.260;2024-03-08T14:01:03;8.73;;;5.70;;
6432;SDS011;3249;42.690;23.260;2024-03-08T14:03:37;8.70;;;6.20;;
6432;SDS011;3249;42.690;23.260;2024-03-08T14:06:07;5.33;;;4.80;;
6432;SDS011;3249;42.690;23.260;2024-03-08T14:08:37;4.97;;;4.57;;
6432;SDS011;3249;42.690;23.260;2024-03-08T14:11:06;4.70;;;4.33;;
6432;SDS011;3249;42.690;23.260;2024-03-08T14:13:42;6.43;;;5.27;;
6432;SDS011;3249;42.690;23.260;2024-03-08T14:16:15;8.77;;;5.00;;
6432;SDS011;3249;42.690;23.260;2024-03-08T14:18:45;4.43;;;4.00;;
6432;SDS011;3249;42.690;23.260;2024-03-08T14:21:14;4.50;;;4.20;;
6432;SDS011;3249;42.690;23.260;2024-03-08T14:23:43;6.50;;;5.90;;
6432;SDS011;3249;42.690;23.260;2024-03-08T14:26:14;6.30;;;3.37;;
6432;SDS011;3249;42.690;23.260;2024-03-08T14:28:46;10.10;;;7.83;;
6432;SDS011;3249;42.690;23.260;2024-03-08T14:31:20;4.53;;;4.13;;
6432;SDS011;3249;42.690;23.260;2024-03-08T14:33:51;5.40;;;5.00;;
6432;SDS011;3249;42.690;23.260;2024-03-08T14:36:22;5.30;;;4.90;;
6432;SDS011;3249;42.690;23.260;2024-03-08T14:38:52;5.73;;;5.23;;
6432;SDS011;3249;42.690;23.260;2024-03-08T14:41:21;6.00;;;5.37;;
6432;SDS011;3249;42.690;23.260;2024-03-08T14:43:52;5.80;;;5.40;;
6432;SDS011;3249;42.690;23.260;2024-03-08T14:46:25;6.43;;;5.80;;
6432;SDS011;3249;42.690;23.260;2024-03-08T14:48:55;7.73;;;6.30;;
6432;SDS011;3249;42.690;23.260;2024-03-08T14:51:24;12.57;;;8.67;;
6432;SDS011;3249;42.690;23.260;2024-03-08T14:53:54;7.63;;;6.93;;
6432;SDS011;3249;42.690;23.260;2024-03-08T14:56:23;13.87;;;10.20;;
6432;SDS011;3249;42.690;23.260;2024-03-08T14:58:53;7.77;;;6.67;;
6432;SDS011;3249;42.690;23.260;2024-03-08T15:01:27;5.30;;;4.90;;
6432;SDS011;3249;42.690;23.260;2024-03-08T15:03:58;4.93;;;4.63;;
6432;SDS011;3249;42.690;23.260;2024-03-08T15:06:37;9.73;;;8.43;;
6432;SDS011;3249;42.690;23.260;2024-03-08T15:09:08;9.30;;;8.07;;
6432;SDS011;3249;42.690;23.260;2024-03-08T15:11:44;11.70;;;8.03;;
6432;SDS011;3249;42.690;23.260;2024-03-08T15:14:15;8.97;;;8.07;;
6432;SDS011;3249;42.690;23.260;2024-03-08T15:16:47;9.97;;;8.93;;
6432;SDS011;3249;42.690;23.260;2024-03-08T15:19:17;10.67;;;9.53;;
6432;SDS011;3249;42.690;23.260;2024-03-08T15:21:46;11.40;;;9.50;;
6432;SDS011;3249;42.690;23.260;2024-03-08T15:24:16;14.63;;;10.97;;